sensor_id;sensor_type;location;lat;lon;timestamp;P1;durP1;ratioP1;P2;durP2;ratioP2
6983;SDS011;3532;51.118;7.210;2023-03-01T00:01:15;7.43;;;6.47;;
6983;SDS011;3532;51.118;7.210;2023-03-01T00:03:42;10.35;;;6.93;;
6983;SDS011;3532;51.118;7.210;2023-03-01T00:06:07;6.97;;;6.27;;
6983;SDS011;3532;51.118;7.210;2023-03-01T00:08:33;7.27;;;6.57;;
6983;SDS011;3532;51.118;7.210;2023-03-01T00:11:17;8.93;;;6.47;;
6983;SDS011;3532;51.118;7.210;2023-03-01T00:13:45;8.75;;;7.07;;
6983;SDS011;3532;51.118;7.210;2023-03-01T00:16:13;8.88;;;7.03;;
6983;SDS011;3532;51.118;7.210;2023-03-01T00:18:40;8.55;;;6.45;;
6983;SDS011;3532;51.118;7.210;2023-03-01T00:21:05;7.57;;;6.43;;
6983;SDS011;3532;51.118;7.210;2023-03-01T00:23:31;8.13;;;6.67;;
6983;SDS011;3532;51.118;7.210;2023-03-01T00:25:58;7.15;;;6.45;;
6983;SDS011;3532;51.118;7.210;2023-03-01T00:28:23;9.37;;;6.93;;
6983;SDS011;3532;51.118;7.210;2023-03-01T00:30:49;8.47;;;6.40;;
6983;SDS011;3532;51.118;7.210;2023-03-01T00:33:14;8.23;;;6.00;;
6983;SDS011;3532;51.118;7.210;2023-03-01T00:35:40;9.90;;;6.87;;
6983;SDS011;3532;51.118;7.210;2023-03-01T00:38:05;7.97;;;6.77;;
6983;SDS011;3532;51.118;7.210;2023-03-01T00:40:32;8.37;;;6.93;;
6983;SDS011;3532;51.118;7.210;2023-03-01T00:42:59;9.23;;;6.80;;
6983;SDS011;3532;51.118;7.210;2023-03-01T00:45:24;7.93;;;7.07;;
6983;SDS011;3532;51.118;7.210;2023-03-01T00:47:51;8.10;;;7.30;;
6983;SDS011;3532;51.118;7.210;2023-03-01T00:50:16;8.57;;;7.17;;
6983;SDS011;3532;51.118;7.210;2023-03-01T00:52:42;7.07;;;6.32;;
6983;SDS011;3532;51.118;7.210;2023-03-01T00:55:08;8.60;;;7.80;;
6983;SDS011;3532;51.118;7.210;2023-03-01T00:57:33;7.70;;;6.90;;
6983;SDS011;3532;51.118;7.210;2023-03-01T00:59:59;9.23;;;7.40;;
6983;SDS011;3532;51.118;7.210;2023-03-01T01:02:24;8.23;;;7.50;;
6983;SDS011;3532;51.118;7.210;2023-03-01T01:04:50;6.73;;;6.10;;
6983;SDS011;3532;51.118;7.210;2023-03-01T01:07:16;8.03;;;6.13;;
6983;SDS011;3532;51.118;7.210;2023-03-01T01:09:42;7.82;;;6.90;;
6983;SDS011;3532;51.118;7.210;2023-03-01T01:12:07;7.90;;;7.03;;
6983;SDS011;3532;51.118;7.210;2023-03-01T01:14:33;9.30;;;7.20;;
6983;SDS011;3532;51.118;7.210;2023-03-01T01:16:58;8.10;;;7.30;;
6983;SDS011;3532;51.118;7.210;2023-03-01T01:19:24;8.37;;;6.87;;
6983;SDS011;3532;51.118;7.210;2023-03-01T01:21:50;8.13;;;6.82;;
6983;SDS011;3532;51.118;7.210;2023-03-01T01:24:15;9.13;;;7.20;;
6983;SDS011;3532;51.118;7.210;2023-03-01T01:26:41;8.97;;;7.27;;
6983;SDS011;3532;51.118;7.210;2023-03-01T01:29:07;8.33;;;7.53;;
6983;SDS011;3532;51.118;7.210;2023-03-01T01:31:33;10.57;;;7.57;;
6983;SDS011;3532;51.118;7.210;2023-03-01T01:34:00;9.43;;;7.18;;
6983;SDS011;3532;51.118;7.210;2023-03-01T01:36:27;8.18;;;7.28;;
6983;SDS011;3532;51.118;7.210;2023-03-01T01:38:52;8.07;;;7.07;;
6983;SDS011;3532;51.118;7.210;2023-03-01T01:41:18;8.33;;;7.50;;
6983;SDS011;3532;51.118;7.210;2023-03-01T01:43:45;9.23;;;8.32;;
6983;SDS011;3532;51.118;7.210;2023-03-01T01:46:16;7.72;;;6.93;;
6983;SDS011;3532;51.118;7.210;2023-03-01T01:48:46;8.32;;;7.53;;
6983;SDS011;3532;51.118;7.210;2023-03-01T01:51:15;8.23;;;7.43;;
6983;SDS011;3532;51.118;7.210;2023-03-01T01:53:44;11.70;;;7.93;;
6983;SDS011;3532;51.118;7.210;2023-03-01T01:56:11;7.35;;;6.50;;
6983;SDS011;3532;51.118;7.210;2023-03-01T01:58:37;8.40;;;7.57;;
6983;SDS011;3532;51.118;7.210;2023-03-01T02:01:04;9.10;;;7.60;;
6983;SDS011;3532;51.118;7.210;2023-03-01T02:03:31;8.25;;;7.55;;
6983;SDS011;3532;51.118;7.210;2023-03-01T02:06:19;8.70;;;7.80;;
6983;SDS011;3532;51.118;7.210;2023-03-01T02:08:47;8.20;;;7.35;;
6983;SDS011;3532;51.118;7.210;2023-03-01T02:11:14;8.90;;;8.00;;
6983;SDS011;3532;51.118;7.210;2023-03-01T02:13:40;10.10;;;9.07;;
6983;SDS011;3532;51.118;7.210;2023-03-01T02:16:10;8.93;;;7.40;;
6983;SDS011;3532;51.118;7.210;2023-03-01T02:18:37;8.90;;;8.05;;
6983;SDS011;3532;51.118;7.210;2023-03-01T02:23:42;12.50;;;8.25;;
6983;SDS011;3532;51.118;7.210;2023-03-01T02:28:54;9.75;;;8.00;;
6983;SDS011;3532;51.118;7.210;2023-03-01T02:31:20;9.23;;;7.70;;
6983;SDS011;3532;51.118;7.210;2023-03-01T02:34:05;9.43;;;8.18;;
6983;SDS011;3532;51.118;7.210;2023-03-01T02:36:34;10.10;;;8.90;;
6983;SDS011;3532;51.118;7.210;2023-03-01T02:39:01;10.98;;;8.40;;
6983;SDS011;3532;51.118;7.210;2023-03-01T02:41:29;8.55;;;7.75;;
6983;SDS011;3532;51.118;7.210;2023-03-01T02:43:56;11.68;;;7.82;;
6983;SDS011;3532;51.118;7.210;2023-03-01T02:46:22;8.70;;;7.80;;
6983;SDS011;3532;51.118;7.210;2023-03-01T02:48:52;9.10;;;8.20;;
6983;SDS011;3532;51.118;7.210;2023-03-01T02:53:59;12.40;;;9.82;;
6983;SDS011;3532;51.118;7.210;2023-03-01T02:56:40;10.43;;;8.27;;
6983;SDS011;3532;51.118;7.210;2023-03-01T02:59:06;10.40;;;8.23;;
6983;SDS011;3532;51.118;7.210;2023-03-01T03:01:31;9.53;;;8.57;;
6983;SDS011;3532;51.118;7.210;2023-03-01T03:04:03;11.25;;;8.85;;
6983;SDS011;3532;51.118;7.210;2023-03-01T03:06:30;10.38;;;8.18;;
6983;SDS011;3532;51.118;7.210;2023-03-01T03:08:55;12.03;;;9.50;;
6983;SDS011;3532;51.118;7.210;2023-03-01T03:11:20;10.67;;;8.97;;
6983;SDS011;3532;51.118;7.210;2023-03-01T03:13:46;10.43;;;9.40;;
6983;SDS011;3532;51.118;7.210;2023-03-01T03:16:13;10.23;;;9.23;;
6983;SDS011;3532;51.118;7.210;2023-03-01T03:18:38;11.10;;;8.30;;
6983;SDS011;3532;51.118;7.210;2023-03-01T03:21:04;11.70;;;9.20;;
6983;SDS011;3532;51.118;7.210;2023-03-01T03:23:35;12.00;;;8.95;;
6983;SDS011;3532;51.118;7.210;2023-03-01T03:26:01;16.40;;;9.37;;
6983;SDS011;3532;51.118;7.210;2023-03-01T03:28:27;11.23;;;9.35;;
6983;SDS011;3532;51.118;7.210;2023-03-01T03:30:52;14.23;;;9.73;;
6983;SDS011;3532;51.118;7.210;2023-03-01T03:33:17;9.93;;;8.90;;
6983;SDS011;3532;51.118;7.210;2023-03-01T03:35:47;8.90;;;8.00;;
6983;SDS011;3532;51.118;7.210;2023-03-01T03:38:14;11.00;;;9.15;;
6983;SDS011;3532;51.118;7.210;2023-03-01T03:40:45;13.73;;;9.63;;
6983;SDS011;3532;51.118;7.210;2023-03-01T03:43:16;9.75;;;8.63;;
6983;SDS011;3532;51.118;7.210;2023-03-01T03:45:46;11.40;;;9.02;;
6983;SDS011;3532;51.118;7.210;2023-03-01T03:48:12;11.52;;;10.30;;
6983;SDS011;3532;51.118;7.210;2023-03-01T03:50:38;12.43;;;8.83;;
6983;SDS011;3532;51.118;7.210;2023-03-01T03:53:04;11.95;;;9.98;;
6983;SDS011;3532;51.118;7.210;2023-03-01T03:55:31;13.07;;;10.05;;
6983;SDS011;3532;51.118;7.210;2023-03-01T03:57:58;10.52;;;9.32;;
6983;SDS011;3532;51.118;7.210;2023-03-01T04:00:27;10.32;;;9.23;;
6983;SDS011;3532;51.118;7.210;2023-03-01T04:02:52;10.07;;;8.83;;
6983;SDS011;3532;51.118;7.210;2023-03-01T04:05:21;15.18;;;10.65;;
6983;SDS011;3532;51.118;7.210;2023-03-01T04:07:47;14.47;;;9.17;;
6983;SDS011;3532;51.118;7.210;2023-03-01T04:10:13;11.83;;;9.70;;
6983;SDS011;3532;51.118;7.210;2023-03-01T04:12:40;11.85;;;10.18;;
6983;SDS011;3532;51.118;7.210;2023-03-01T04:15:08;10.85;;;9.35;;
6983;SDS011;3532;51.118;7.210;2023-03-01T04:17:40;11.68;;;9.60;;
6983;SDS011;3532;51.118;7.210;2023-03-01T04:20:10;10.32;;;9.32;;
6983;SDS011;3532;51.118;7.210;2023-03-01T04:22:37;9.82;;;8.90;;
6983;SDS011;3532;51.118;7.210;2023-03-01T04:25:03;12.10;;;9.27;;
6983;SDS011;3532;51.118;7.210;2023-03-01T04:27:30;11.48;;;10.25;;
6983;SDS011;3532;51.118;7.210;2023-03-01T04:29:57;10.02;;;9.02;;
6983;SDS011;3532;51.118;7.210;2023-03-01T04:32:22;11.43;;;9.27;;
6983;SDS011;3532;51.118;7.210;2023-03-01T04:34:47;12.07;;;9.63;;
6983;SDS011;3532;51.118;7.210;2023-03-01T04:37:13;11.27;;;10.13;;
6983;SDS011;3532;51.118;7.210;2023-03-01T04:39:40;12.40;;;9.65;;
6983;SDS011;3532;51.118;7.210;2023-03-01T04:42:10;10.90;;;9.07;;
6983;SDS011;3532;51.118;7.210;2023-03-01T04:44:44;14.38;;;11.10;;
6983;SDS011;3532;51.118;7.210;2023-03-01T04:47:10;12.30;;;9.27;;
6983;SDS011;3532;51.118;7.210;2023-03-01T04:49:36;11.43;;;10.23;;
6983;SDS011;3532;51.118;7.210;2023-03-01T04:52:01;11.63;;;10.53;;
6983;SDS011;3532;51.118;7.210;2023-03-01T04:54:30;11.73;;;10.07;;
6983;SDS011;3532;51.118;7.210;2023-03-01T04:56:57;13.77;;;9.70;;
6983;SDS011;3532;51.118;7.210;2023-03-01T04:59:22;13.37;;;10.93;;
6983;SDS011;3532;51.118;7.210;2023-03-01T05:01:48;14.63;;;9.97;;
6983;SDS011;3532;51.118;7.210;2023-03-01T05:04:14;11.20;;;10.00;;
6983;SDS011;3532;51.118;7.210;2023-03-01T05:06:39;14.97;;;10.40;;
6983;SDS011;3532;51.118;7.210;2023-03-01T05:09:04;11.07;;;9.97;;
6983;SDS011;3532;51.118;7.210;2023-03-01T05:11:30;13.07;;;10.77;;
6983;SDS011;3532;51.118;7.210;2023-03-01T05:13:58;11.25;;;9.88;;
6983;SDS011;3532;51.118;7.210;2023-03-01T05:16:24;14.40;;;10.40;;
6983;SDS011;3532;51.118;7.210;2023-03-01T05:18:49;12.00;;;10.80;;
6983;SDS011;3532;51.118;7.210;2023-03-01T05:21:16;14.03;;;10.43;;
6983;SDS011;3532;51.118;7.210;2023-03-01T05:23:41;12.07;;;10.75;;
6983;SDS011;3532;51.118;7.210;2023-03-01T05:26:07;11.83;;;10.60;;
6983;SDS011;3532;51.118;7.210;2023-03-01T05:28:33;12.13;;;10.80;;
6983;SDS011;3532;51.118;7.210;2023-03-01T05:30:58;14.07;;;11.97;;
6983;SDS011;3532;51.118;7.210;2023-03-01T05:33:24;14.20;;;11.57;;
6983;SDS011;3532;51.118;7.210;2023-03-01T05:35:50;14.02;;;10.35;;
6983;SDS011;3532;51.118;7.210;2023-03-01T05:38:17;12.30;;;10.13;;
6983;SDS011;3532;51.118;7.210;2023-03-01T05:40:43;12.75;;;11.13;;
6983;SDS011;3532;51.118;7.210;2023-03-01T05:43:10;12.80;;;11.40;;
6983;SDS011;3532;51.118;7.210;2023-03-01T05:45:36;12.70;;;11.40;;
6983;SDS011;3532;51.118;7.210;2023-03-01T05:48:04;11.35;;;10.20;;
6983;SDS011;3532;51.118;7.210;2023-03-01T05:50:35;11.77;;;10.27;;
6983;SDS011;3532;51.118;7.210;2023-03-01T05:53:03;11.15;;;10.07;;
6983;SDS011;3532;51.118;7.210;2023-03-01T05:55:32;16.00;;;11.30;;
6983;SDS011;3532;51.118;7.210;2023-03-01T05:57:59;13.27;;;10.80;;
6983;SDS011;3532;51.118;7.210;2023-03-01T06:00:28;14.23;;;12.27;;
6983;SDS011;3532;51.118;7.210;2023-03-01T06:02:54;13.10;;;11.27;;
6983;SDS011;3532;51.118;7.210;2023-03-01T06:05:20;12.80;;;11.17;;
6983;SDS011;3532;51.118;7.210;2023-03-01T06:07:47;13.05;;;10.73;;
6983;SDS011;3532;51.118;7.210;2023-03-01T06:10:12;14.90;;;10.53;;
6983;SDS011;3532;51.118;7.210;2023-03-01T06:12:39;11.90;;;10.43;;
6983;SDS011;3532;51.118;7.210;2023-03-01T06:15:05;14.50;;;12.40;;
6983;SDS011;3532;51.118;7.210;2023-03-01T06:17:32;15.20;;;11.05;;
6983;SDS011;3532;51.118;7.210;2023-03-01T06:20:02;13.15;;;10.88;;
6983;SDS011;3532;51.118;7.210;2023-03-01T06:22:31;12.93;;;10.88;;
6983;SDS011;3532;51.118;7.210;2023-03-01T06:24:56;15.80;;;11.37;;
6983;SDS011;3532;51.118;7.210;2023-03-01T06:27:21;14.50;;;11.67;;
6983;SDS011;3532;51.118;7.210;2023-03-01T06:29:47;12.73;;;11.43;;
6983;SDS011;3532;51.118;7.210;2023-03-01T06:32:12;13.87;;;11.37;;
6983;SDS011;3532;51.118;7.210;2023-03-01T06:34:37;14.13;;;11.37;;
6983;SDS011;3532;51.118;7.210;2023-03-01T06:37:02;14.27;;;11.93;;
6983;SDS011;3532;51.118;7.210;2023-03-01T06:39:30;14.55;;;12.02;;
6983;SDS011;3532;51.118;7.210;2023-03-01T06:41:55;13.33;;;11.30;;
6983;SDS011;3532;51.118;7.210;2023-03-01T06:44:21;14.60;;;11.03;;
6983;SDS011;3532;51.118;7.210;2023-03-01T06:46:46;15.50;;;12.17;;
6983;SDS011;3532;51.118;7.210;2023-03-01T06:49:11;14.20;;;12.27;;
6983;SDS011;3532;51.118;7.210;2023-03-01T06:51:37;14.13;;;11.63;;
6983;SDS011;3532;51.118;7.210;2023-03-01T06:54:05;15.53;;;12.03;;
6983;SDS011;3532;51.118;7.210;2023-03-01T06:56:31;15.85;;;12.00;;
6983;SDS011;3532;51.118;7.210;2023-03-01T06:58:57;17.70;;;11.98;;
6983;SDS011;3532;51.118;7.210;2023-03-01T07:01:22;16.23;;;11.80;;
6983;SDS011;3532;51.118;7.210;2023-03-01T07:03:47;16.33;;;12.00;;
6983;SDS011;3532;51.118;7.210;2023-03-01T07:06:12;13.57;;;11.37;;
6983;SDS011;3532;51.118;7.210;2023-03-01T07:08:38;13.90;;;12.03;;
6983;SDS011;3532;51.118;7.210;2023-03-01T07:11:03;15.37;;;11.77;;
6983;SDS011;3532;51.118;7.210;2023-03-01T07:13:29;13.00;;;10.90;;
6983;SDS011;3532;51.118;7.210;2023-03-01T07:15:54;13.93;;;11.67;;
6983;SDS011;3532;51.118;7.210;2023-03-01T07:18:20;16.37;;;12.13;;
6983;SDS011;3532;51.118;7.210;2023-03-01T07:20:46;12.10;;;10.77;;
6983;SDS011;3532;51.118;7.210;2023-03-01T07:23:11;14.03;;;12.27;;
6983;SDS011;3532;51.118;7.210;2023-03-01T07:25:36;14.13;;;11.97;;
6983;SDS011;3532;51.118;7.210;2023-03-01T07:28:01;14.73;;;11.60;;
6983;SDS011;3532;51.118;7.210;2023-03-01T07:30:27;15.97;;;12.90;;
6983;SDS011;3532;51.118;7.210;2023-03-01T07:32:53;14.00;;;11.25;;
6983;SDS011;3532;51.118;7.210;2023-03-01T07:35:20;14.23;;;11.48;;
6983;SDS011;3532;51.118;7.210;2023-03-01T07:37:45;11.87;;;10.60;;
6983;SDS011;3532;51.118;7.210;2023-03-01T07:40:11;13.83;;;11.27;;
6983;SDS011;3532;51.118;7.210;2023-03-01T07:42:37;15.65;;;11.48;;
6983;SDS011;3532;51.118;7.210;2023-03-01T07:45:02;13.13;;;11.10;;
6983;SDS011;3532;51.118;7.210;2023-03-01T07:47:28;13.15;;;11.75;;
6983;SDS011;3532;51.118;7.210;2023-03-01T07:49:54;13.20;;;11.60;;
6983;SDS011;3532;51.118;7.210;2023-03-01T07:52:19;15.63;;;11.70;;
6983;SDS011;3532;51.118;7.210;2023-03-01T07:54:44;11.77;;;10.37;;
6983;SDS011;3532;51.118;7.210;2023-03-01T07:57:10;14.60;;;11.17;;
6983;SDS011;3532;51.118;7.210;2023-03-01T07:59:35;15.23;;;12.50;;
6983;SDS011;3532;51.118;7.210;2023-03-01T08:02:01;15.60;;;11.47;;
6983;SDS011;3532;51.118;7.210;2023-03-01T08:04:26;12.83;;;11.47;;
6983;SDS011;3532;51.118;7.210;2023-03-01T08:06:52;12.40;;;11.10;;
6983;SDS011;3532;51.118;7.210;2023-03-01T08:09:18;12.63;;;10.68;;
6983;SDS011;3532;51.118;7.210;2023-03-01T08:11:43;13.87;;;11.37;;
6983;SDS011;3532;51.118;7.210;2023-03-01T08:14:09;13.32;;;11.40;;
6983;SDS011;3532;51.118;7.210;2023-03-01T08:16:38;12.23;;;10.90;;
6983;SDS011;3532;51.118;7.210;2023-03-01T08:19:04;12.37;;;11.07;;
6983;SDS011;3532;51.118;7.210;2023-03-01T08:21:32;11.77;;;10.55;;
6983;SDS011;3532;51.118;7.210;2023-03-01T08:23:59;13.70;;;11.60;;
6983;SDS011;3532;51.118;7.210;2023-03-01T08:26:25;12.40;;;10.23;;
6983;SDS011;3532;51.118;7.210;2023-03-01T08:28:50;14.93;;;10.50;;
6983;SDS011;3532;51.118;7.210;2023-03-01T08:31:18;10.77;;;9.27;;
6983;SDS011;3532;51.118;7.210;2023-03-01T08:33:52;12.75;;;10.05;;
6983;SDS011;3532;51.118;7.210;2023-03-01T08:36:22;13.85;;;11.32;;
6983;SDS011;3532;51.118;7.210;2023-03-01T08:38:48;11.68;;;10.20;;
6983;SDS011;3532;51.118;7.210;2023-03-01T08:41:14;12.37;;;11.07;;
6983;SDS011;3532;51.118;7.210;2023-03-01T08:43:39;13.17;;;11.33;;
6983;SDS011;3532;51.118;7.210;2023-03-01T08:46:05;13.33;;;9.83;;
6983;SDS011;3532;51.118;7.210;2023-03-01T08:48:30;12.13;;;10.27;;
6983;SDS011;3532;51.118;7.210;2023-03-01T08:50:55;11.87;;;10.47;;
6983;SDS011;3532;51.118;7.210;2023-03-01T08:53:21;12.07;;;10.00;;
6983;SDS011;3532;51.118;7.210;2023-03-01T08:55:46;12.80;;;10.03;;
6983;SDS011;3532;51.118;7.210;2023-03-01T08:58:11;12.73;;;9.93;;
6983;SDS011;3532;51.118;7.210;2023-03-01T09:00:37;12.13;;;10.23;;
6983;SDS011;3532;51.118;7.210;2023-03-01T09:03:02;11.50;;;9.67;;
6983;SDS011;3532;51.118;7.210;2023-03-01T09:05:28;11.57;;;8.87;;
6983;SDS011;3532;51.118;7.210;2023-03-01T09:07:53;14.20;;;10.27;;
6983;SDS011;3532;51.118;7.210;2023-03-01T09:10:18;11.73;;;9.57;;
6983;SDS011;3532;51.118;7.210;2023-03-01T09:12:43;9.60;;;8.60;;
6983;SDS011;3532;51.118;7.210;2023-03-01T09:15:09;10.50;;;8.87;;
6983;SDS011;3532;51.118;7.210;2023-03-01T09:17:35;11.43;;;10.00;;
6983;SDS011;3532;51.118;7.210;2023-03-01T09:20:00;14.63;;;9.77;;
6983;SDS011;3532;51.118;7.210;2023-03-01T09:22:25;14.20;;;10.23;;
6983;SDS011;3532;51.118;7.210;2023-03-01T09:24:51;9.83;;;8.87;;
6983;SDS011;3532;51.118;7.210;2023-03-01T09:27:16;10.83;;;8.63;;
6983;SDS011;3532;51.118;7.210;2023-03-01T09:29:43;10.73;;;9.15;;
6983;SDS011;3532;51.118;7.210;2023-03-01T09:32:09;10.93;;;8.97;;
6983;SDS011;3532;51.118;7.210;2023-03-01T09:34:35;11.60;;;9.10;;
6983;SDS011;3532;51.118;7.210;2023-03-01T09:37:20;10.45;;;8.80;;
6983;SDS011;3532;51.118;7.210;2023-03-01T09:39:45;13.57;;;9.77;;
6983;SDS011;3532;51.118;7.210;2023-03-01T09:42:11;10.37;;;8.93;;
6983;SDS011;3532;51.118;7.210;2023-03-01T09:47:20;13.00;;;9.50;;
6983;SDS011;3532;51.118;7.210;2023-03-01T09:50:31;11.10;;;8.75;;
6983;SDS011;3532;51.118;7.210;2023-03-01T09:52:40;12.18;;;10.23;;
6983;SDS011;3532;51.118;7.210;2023-03-01T09:55:08;10.88;;;9.30;;
6983;SDS011;3532;51.118;7.210;2023-03-01T09:57:39;11.68;;;8.85;;
6983;SDS011;3532;51.118;7.210;2023-03-01T10:00:17;11.68;;;10.45;;
6983;SDS011;3532;51.118;7.210;2023-03-01T10:02:51;12.38;;;9.70;;
6983;SDS011;3532;51.118;7.210;2023-03-01T10:05:35;10.32;;;9.23;;
6983;SDS011;3532;51.118;7.210;2023-03-01T10:08:24;11.25;;;9.07;;
6983;SDS011;3532;51.118;7.210;2023-03-01T10:10:54;11.70;;;9.75;;
6983;SDS011;3532;51.118;7.210;2023-03-01T10:13:21;11.10;;;9.47;;
6983;SDS011;3532;51.118;7.210;2023-03-01T10:15:55;12.45;;;9.52;;
6983;SDS011;3532;51.118;7.210;2023-03-01T10:18:23;14.65;;;9.77;;
6983;SDS011;3532;51.118;7.210;2023-03-01T10:21:01;13.00;;;8.77;;
6983;SDS011;3532;51.118;7.210;2023-03-01T10:23:30;13.20;;;10.10;;
6983;SDS011;3532;51.118;7.210;2023-03-01T10:31:18;12.73;;;9.33;;
6983;SDS011;3532;51.118;7.210;2023-03-01T10:33:47;10.93;;;8.87;;
6983;SDS011;3532;51.118;7.210;2023-03-01T10:36:16;10.82;;;8.77;;
6983;SDS011;3532;51.118;7.210;2023-03-01T10:38:52;10.70;;;9.23;;
6983;SDS011;3532;51.118;7.210;2023-03-01T10:41:19;11.07;;;9.17;;
6983;SDS011;3532;51.118;7.210;2023-03-01T10:44:03;13.23;;;9.53;;
6983;SDS011;3532;51.118;7.210;2023-03-01T10:46:31;10.67;;;8.63;;
6983;SDS011;3532;51.118;7.210;2023-03-01T10:49:14;9.90;;;8.67;;
6983;SDS011;3532;51.118;7.210;2023-03-01T10:51:49;10.37;;;8.87;;
6983;SDS011;3532;51.118;7.210;2023-03-01T10:54:17;11.40;;;8.87;;
6983;SDS011;3532;51.118;7.210;2023-03-01T10:56:54;13.07;;;8.83;;
6983;SDS011;3532;51.118;7.210;2023-03-01T11:05:00;12.27;;;9.43;;
6983;SDS011;3532;51.118;7.210;2023-03-01T11:10:33;9.83;;;8.73;;
6983;SDS011;3532;51.118;7.210;2023-03-01T11:13:07;10.90;;;8.93;;
6983;SDS011;3532;51.118;7.210;2023-03-01T11:15:40;12.97;;;10.63;;
6983;SDS011;3532;51.118;7.210;2023-03-01T11:18:05;11.00;;;8.87;;
6983;SDS011;3532;51.118;7.210;2023-03-01T11:20:43;10.73;;;8.80;;
6983;SDS011;3532;51.118;7.210;2023-03-01T11:23:10;10.57;;;9.27;;
6983;SDS011;3532;51.118;7.210;2023-03-01T11:25:37;9.63;;;8.60;;
6983;SDS011;3532;51.118;7.210;2023-03-01T11:28:05;11.93;;;9.47;;
6983;SDS011;3532;51.118;7.210;2023-03-01T11:33:35;9.77;;;8.43;;
6983;SDS011;3532;51.118;7.210;2023-03-01T11:36:16;12.27;;;9.00;;
6983;SDS011;3532;51.118;7.210;2023-03-01T11:38:55;11.27;;;9.37;;
6983;SDS011;3532;51.118;7.210;2023-03-01T11:41:21;11.47;;;10.20;;
6983;SDS011;3532;51.118;7.210;2023-03-01T11:46:25;13.37;;;8.90;;
6983;SDS011;3532;51.118;7.210;2023-03-01T11:49:05;13.50;;;9.37;;
6983;SDS011;3532;51.118;7.210;2023-03-01T11:57:34;10.97;;;8.00;;
6983;SDS011;3532;51.118;7.210;2023-03-01T12:00:21;10.30;;;7.93;;
6983;SDS011;3532;51.118;7.210;2023-03-01T12:21:56;11.53;;;9.10;;
6983;SDS011;3532;51.118;7.210;2023-03-01T12:24:40;11.43;;;8.83;;
6983;SDS011;3532;51.118;7.210;2023-03-01T12:27:37;8.77;;;7.87;;
6983;SDS011;3532;51.118;7.210;2023-03-01T12:33:08;9.43;;;7.40;;
6983;SDS011;3532;51.118;7.210;2023-03-01T12:35:52;9.07;;;8.13;;
6983;SDS011;3532;51.118;7.210;2023-03-01T12:39:26;10.60;;;8.43;;
6983;SDS011;3532;51.118;7.210;2023-03-01T12:49:31;11.83;;;8.03;;
6983;SDS011;3532;51.118;7.210;2023-03-01T12:52:01;8.20;;;7.40;;
6983;SDS011;3532;51.118;7.210;2023-03-01T12:54:35;9.23;;;7.97;;
6983;SDS011;3532;51.118;7.210;2023-03-01T13:00:02;8.13;;;6.83;;
6983;SDS011;3532;51.118;7.210;2023-03-01T13:02:50;8.13;;;7.07;;
6983;SDS011;3532;51.118;7.210;2023-03-01T13:05:29;9.63;;;7.67;;
6983;SDS011;3532;51.118;7.210;2023-03-01T13:10:39;7.20;;;6.50;;
6983;SDS011;3532;51.118;7.210;2023-03-01T13:15:36;10.20;;;6.67;;
6983;SDS011;3532;51.118;7.210;2023-03-01T13:25:59;8.23;;;7.33;;
6983;SDS011;3532;51.118;7.210;2023-03-01T13:28:37;9.80;;;7.77;;
6983;SDS011;3532;51.118;7.210;2023-03-01T13:31:07;12.60;;;7.80;;
6983;SDS011;3532;51.118;7.210;2023-03-01T13:33:42;8.33;;;7.53;;
6983;SDS011;3532;51.118;7.210;2023-03-01T13:36:09;7.50;;;6.37;;
6983;SDS011;3532;51.118;7.210;2023-03-01T13:38:45;8.77;;;7.60;;
6983;SDS011;3532;51.118;7.210;2023-03-01T13:44:29;9.37;;;7.80;;
6983;SDS011;3532;51.118;7.210;2023-03-01T13:46:56;8.43;;;7.00;;
6983;SDS011;3532;51.118;7.210;2023-03-01T13:49:28;13.27;;;8.37;;
6983;SDS011;3532;51.118;7.210;2023-03-01T13:51:56;10.90;;;7.77;;
6983;SDS011;3532;51.118;7.210;2023-03-01T13:54:29;10.73;;;8.20;;
6983;SDS011;3532;51.118;7.210;2023-03-01T13:56:56;10.80;;;8.20;;
6983;SDS011;3532;51.118;7.210;2023-03-01T13:59:23;9.73;;;8.03;;
6983;SDS011;3532;51.118;7.210;2023-03-01T14:01:55;13.63;;;7.93;;
6983;SDS011;3532;51.118;7.210;2023-03-01T14:04:22;10.07;;;8.23;;
6983;SDS011;3532;51.118;7.210;2023-03-01T14:06:48;9.87;;;7.07;;
6983;SDS011;3532;51.118;7.210;2023-03-01T14:09:16;10.67;;;8.27;;
6983;SDS011;3532;51.118;7.210;2023-03-01T14:12:06;12.73;;;9.07;;
6983;SDS011;3532;51.118;7.210;2023-03-01T14:17:12;10.00;;;7.20;;
6983;SDS011;3532;51.118;7.210;2023-03-01T14:19:46;9.73;;;7.70;;
6983;SDS011;3532;51.118;7.210;2023-03-01T14:24:55;9.17;;;7.30;;
6983;SDS011;3532;51.118;7.210;2023-03-01T14:27:23;10.73;;;7.33;;
6983;SDS011;3532;51.118;7.210;2023-03-01T14:29:56;10.40;;;7.90;;
6983;SDS011;3532;51.118;7.210;2023-03-01T14:32:25;11.00;;;7.97;;
6983;SDS011;3532;51.118;7.210;2023-03-01T14:34:52;10.03;;;8.30;;
6983;SDS011;3532;51.118;7.210;2023-03-01T14:37:30;13.10;;;8.47;;
6983;SDS011;3532;51.118;7.210;2023-03-01T14:39:58;12.27;;;8.43;;
6983;SDS011;3532;51.118;7.210;2023-03-01T14:42:25;10.17;;;8.17;;
6983;SDS011;3532;51.118;7.210;2023-03-01T14:44:53;8.77;;;7.73;;
6983;SDS011;3532;51.118;7.210;2023-03-01T14:49:51;8.60;;;6.90;;
6983;SDS011;3532;51.118;7.210;2023-03-01T14:52:25;12.10;;;8.43;;
6983;SDS011;3532;51.118;7.210;2023-03-01T14:54:53;14.60;;;7.87;;
6983;SDS011;3532;51.118;7.210;2023-03-01T14:57:21;9.37;;;7.63;;
6983;SDS011;3532;51.118;7.210;2023-03-01T14:59:48;12.90;;;7.57;;
6983;SDS011;3532;51.118;7.210;2023-03-01T15:02:16;9.20;;;7.47;;
6983;SDS011;3532;51.118;7.210;2023-03-01T15:04:45;10.17;;;6.97;;
6983;SDS011;3532;51.118;7.210;2023-03-01T15:07:12;9.33;;;7.57;;
6983;SDS011;3532;51.118;7.210;2023-03-01T15:09:39;7.40;;;6.67;;
6983;SDS011;3532;51.118;7.210;2023-03-01T15:18:04;10.87;;;7.00;;
6983;SDS011;3532;51.118;7.210;2023-03-01T15:20:31;8.43;;;7.53;;
6983;SDS011;3532;51.118;7.210;2023-03-01T15:23:01;8.37;;;7.50;;
6983;SDS011;3532;51.118;7.210;2023-03-01T15:25:27;12.00;;;7.77;;
6983;SDS011;3532;51.118;7.210;2023-03-01T15:27:55;7.80;;;6.97;;
6983;SDS011;3532;51.118;7.210;2023-03-01T15:30:23;6.83;;;6.13;;
6983;SDS011;3532;51.118;7.210;2023-03-01T15:35:46;6.63;;;5.97;;
6983;SDS011;3532;51.118;7.210;2023-03-01T15:41:01;8.83;;;7.03;;
6983;SDS011;3532;51.118;7.210;2023-03-01T15:46:32;10.10;;;6.70;;
6983;SDS011;3532;51.118;7.210;2023-03-01T15:49:03;10.20;;;6.37;;
6983;SDS011;3532;51.118;7.210;2023-03-01T15:51:34;7.80;;;6.30;;
6983;SDS011;3532;51.118;7.210;2023-03-01T15:54:04;6.87;;;5.90;;
6983;SDS011;3532;51.118;7.210;2023-03-01T15:56:31;9.43;;;6.23;;
6983;SDS011;3532;51.118;7.210;2023-03-01T15:58:58;8.87;;;6.90;;
6983;SDS011;3532;51.118;7.210;2023-03-01T16:01:24;7.10;;;6.40;;
6983;SDS011;3532;51.118;7.210;2023-03-01T16:03:49;7.33;;;6.13;;
6983;SDS011;3532;51.118;7.210;2023-03-01T16:06:15;7.77;;;6.97;;
6983;SDS011;3532;51.118;7.210;2023-03-01T16:08:40;8.20;;;6.50;;
6983;SDS011;3532;51.118;7.210;2023-03-01T16:11:13;8.37;;;7.07;;
6983;SDS011;3532;51.118;7.210;2023-03-01T16:13:41;11.97;;;7.17;;
6983;SDS011;3532;51.118;7.210;2023-03-01T16:16:07;7.23;;;6.47;;
6983;SDS011;3532;51.118;7.210;2023-03-01T16:18:34;8.43;;;7.17;;
6983;SDS011;3532;51.118;7.210;2023-03-01T16:20:59;10.03;;;6.97;;
6983;SDS011;3532;51.118;7.210;2023-03-01T16:23:25;7.30;;;6.40;;
6983;SDS011;3532;51.118;7.210;2023-03-01T16:25:50;7.27;;;6.17;;
6983;SDS011;3532;51.118;7.210;2023-03-01T16:28:15;8.20;;;6.53;;
6983;SDS011;3532;51.118;7.210;2023-03-01T16:30:44;7.70;;;6.93;;
6983;SDS011;3532;51.118;7.210;2023-03-01T16:33:11;7.50;;;6.63;;
6983;SDS011;3532;51.118;7.210;2023-03-01T16:35:39;6.77;;;5.93;;
6983;SDS011;3532;51.118;7.210;2023-03-01T16:38:05;9.03;;;7.07;;
6983;SDS011;3532;51.118;7.210;2023-03-01T16:40:30;7.60;;;6.97;;
6983;SDS011;3532;51.118;7.210;2023-03-01T16:42:56;9.03;;;6.40;;
6983;SDS011;3532;51.118;7.210;2023-03-01T16:45:27;7.10;;;6.40;;
6983;SDS011;3532;51.118;7.210;2023-03-01T16:47:53;7.90;;;6.07;;
6983;SDS011;3532;51.118;7.210;2023-03-01T16:50:19;9.60;;;7.77;;
6983;SDS011;3532;51.118;7.210;2023-03-01T16:52:44;8.87;;;7.47;;
6983;SDS011;3532;51.118;7.210;2023-03-01T16:55:10;10.40;;;7.17;;
6983;SDS011;3532;51.118;7.210;2023-03-01T16:57:36;12.43;;;7.77;;